sensor_id;sensor_type;location;lat;lon;timestamp;P1;durP1;ratioP1;P2;durP2;ratioP2
67997;SDS011;54773;53.388;-1.504;2023-11-19T00:01:51;14.90;;;2.80;;
67997;SDS011;54773;53.388;-1.504;2023-11-19T00:04:38;16.88;;;3.20;;
67997;SDS011;54773;53.388;-1.504;2023-11-19T00:07:25;18.67;;;3.30;;
67997;SDS011;54773;53.388;-1.504;2023-11-19T00:10:16;16.77;;;3.57;;
67997;SDS011;54773;53.388;-1.504;2023-11-19T00:13:04;19.58;;;3.25;;
67997;SDS011;54773;53.388;-1.504;2023-11-19T00:15:49;22.13;;;3.47;;
67997;SDS011;54773;53.388;-1.504;2023-11-19T00:18:33;14.63;;;3.22;;
67997;SDS011;54773;53.388;-1.504;2023-11-19T00:21:17;19.55;;;2.80;;
67997;SDS011;54773;53.388;-1.504;2023-11-19T00:24:01;14.83;;;3.33;;
67997;SDS011;54773;53.388;-1.504;2023-11-19T00:26:45;19.75;;;3.03;;
67997;SDS011;54773;53.388;-1.504;2023-11-19T00:29:29;20.80;;;3.80;;
67997;SDS011;54773;53.388;-1.504;2023-11-19T00:32:13;16.50;;;2.72;;
67997;SDS011;54773;53.388;-1.504;2023-11-19T00:34:56;13.23;;;2.27;;
67997;SDS011;54773;53.388;-1.504;2023-11-19T00:37:40;17.87;;;3.00;;
67997;SDS011;54773;53.388;-1.504;2023-11-19T00:40:26;16.67;;;3.08;;
67997;SDS011;54773;53.388;-1.504;2023-11-19T00:43:10;21.85;;;3.58;;
67997;SDS011;54773;53.388;-1.504;2023-11-19T00:45:54;12.00;;;1.93;;
67997;SDS011;54773;53.388;-1.504;2023-11-19T00:48:38;19.95;;;3.60;;
67997;SDS011;54773;53.388;-1.504;2023-11-19T00:51:22;19.17;;;3.77;;
67997;SDS011;54773;53.388;-1.504;2023-11-19T00:54:05;16.97;;;3.10;;
67997;SDS011;54773;53.388;-1.504;2023-11-19T00:56:49;14.77;;;3.07;;
67997;SDS011;54773;53.388;-1.504;2023-11-19T00:59:35;15.45;;;3.78;;
67997;SDS011;54773;53.388;-1.504;2023-11-19T01:02:19;18.23;;;3.03;;
67997;SDS011;54773;53.388;-1.504;2023-11-19T01:05:03;17.80;;;2.67;;
67997;SDS011;54773;53.388;-1.504;2023-11-19T01:07:48;26.48;;;3.47;;
67997;SDS011;54773;53.388;-1.504;2023-11-19T01:10:32;16.92;;;3.78;;
67997;SDS011;54773;53.388;-1.504;2023-11-19T01:13:16;19.63;;;3.57;;
67997;SDS011;54773;53.388;-1.504;2023-11-19T01:15:59;16.02;;;3.25;;
67997;SDS011;54773;53.388;-1.504;2023-11-19T01:18:49;18.15;;;3.00;;
67997;SDS011;54773;53.388;-1.504;2023-11-19T01:21:33;14.43;;;3.05;;
67997;SDS011;54773;53.388;-1.504;2023-11-19T01:24:17;19.58;;;2.92;;
67997;SDS011;54773;53.388;-1.504;2023-11-19T01:27:01;14.70;;;2.63;;
67997;SDS011;54773;53.388;-1.504;2023-11-19T01:29:45;17.98;;;2.67;;
67997;SDS011;54773;53.388;-1.504;2023-11-19T01:32:29;19.63;;;3.97;;
67997;SDS011;54773;53.388;-1.504;2023-11-19T01:35:13;15.30;;;3.33;;
67997;SDS011;54773;53.388;-1.504;2023-11-19T01:37:58;16.48;;;3.05;;
67997;SDS011;54773;53.388;-1.504;2023-11-19T01:40:42;15.45;;;2.97;;
67997;SDS011;54773;53.388;-1.504;2023-11-19T01:43:33;18.57;;;2.90;;
67997;SDS011;54773;53.388;-1.504;2023-11-19T01:46:17;23.05;;;3.03;;
67997;SDS011;54773;53.388;-1.504;2023-11-19T01:49:01;25.48;;;3.58;;
67997;SDS011;54773;53.388;-1.504;2023-11-19T01:51:46;20.17;;;3.00;;
67997;SDS011;54773;53.388;-1.504;2023-11-19T01:54:31;17.30;;;3.40;;
67997;SDS011;54773;53.388;-1.504;2023-11-19T01:57:18;13.30;;;2.78;;
67997;SDS011;54773;53.388;-1.504;2023-11-19T02:00:02;17.65;;;3.05;;
67997;SDS011;54773;53.388;-1.504;2023-11-19T02:02:47;20.25;;;4.18;;
67997;SDS011;54773;53.388;-1.504;2023-11-19T02:05:32;18.70;;;3.13;;
67997;SDS011;54773;53.388;-1.504;2023-11-19T02:08:16;15.80;;;3.63;;
67997;SDS011;54773;53.388;-1.504;2023-11-19T02:11:01;19.35;;;3.35;;
67997;SDS011;54773;53.388;-1.504;2023-11-19T02:13:45;18.92;;;3.83;;
67997;SDS011;54773;53.388;-1.504;2023-11-19T02:16:29;18.37;;;2.80;;
67997;SDS011;54773;53.388;-1.504;2023-11-19T02:19:13;17.58;;;2.45;;
67997;SDS011;54773;53.388;-1.504;2023-11-19T02:21:57;21.75;;;3.10;;
67997;SDS011;54773;53.388;-1.504;2023-11-19T02:24:41;13.27;;;2.92;;
67997;SDS011;54773;53.388;-1.504;2023-11-19T02:27:40;15.23;;;3.20;;
67997;SDS011;54773;53.388;-1.504;2023-11-19T02:30:24;19.95;;;3.00;;
67997;SDS011;54773;53.388;-1.504;2023-11-19T02:33:12;17.48;;;2.72;;
67997;SDS011;54773;53.388;-1.504;2023-11-19T02:35:56;12.40;;;2.90;;
67997;SDS011;54773;53.388;-1.504;2023-11-19T02:38:40;11.03;;;2.80;;
67997;SDS011;54773;53.388;-1.504;2023-11-19T02:41:24;15.35;;;2.90;;
67997;SDS011;54773;53.388;-1.504;2023-11-19T02:44:08;22.00;;;3.38;;
67997;SDS011;54773;53.388;-1.504;2023-11-19T02:46:52;15.02;;;3.08;;
67997;SDS011;54773;53.388;-1.504;2023-11-19T02:49:35;17.80;;;2.87;;
67997;SDS011;54773;53.388;-1.504;2023-11-19T02:52:20;13.00;;;2.58;;
67997;SDS011;54773;53.388;-1.504;2023-11-19T02:55:04;13.88;;;2.63;;
67997;SDS011;54773;53.388;-1.504;2023-11-19T02:57:52;18.17;;;2.60;;
67997;SDS011;54773;53.388;-1.504;2023-11-19T03:00:39;17.65;;;2.75;;
67997;SDS011;54773;53.388;-1.504;2023-11-19T03:03:31;10.25;;;2.80;;
67997;SDS011;54773;53.388;-1.504;2023-11-19T03:06:21;15.93;;;2.92;;
67997;SDS011;54773;53.388;-1.504;2023-11-19T03:09:05;12.63;;;2.53;;
67997;SDS011;54773;53.388;-1.504;2023-11-19T03:11:53;19.10;;;2.97;;
67997;SDS011;54773;53.388;-1.504;2023-11-19T03:14:37;15.90;;;3.17;;
67997;SDS011;54773;53.388;-1.504;2023-11-19T03:17:21;18.92;;;2.92;;
67997;SDS011;54773;53.388;-1.504;2023-11-19T03:20:05;14.70;;;2.00;;
67997;SDS011;54773;53.388;-1.504;2023-11-19T03:22:52;13.52;;;2.85;;
67997;SDS011;54773;53.388;-1.504;2023-11-19T03:25:36;17.88;;;2.67;;
67997;SDS011;54773;53.388;-1.504;2023-11-19T03:28:20;16.92;;;2.63;;
67997;SDS011;54773;53.388;-1.504;2023-11-19T03:31:04;15.67;;;2.87;;
67997;SDS011;54773;53.388;-1.504;2023-11-19T03:33:52;14.50;;;2.70;;
67997;SDS011;54773;53.388;-1.504;2023-11-19T03:36:35;11.57;;;2.30;;
67997;SDS011;54773;53.388;-1.504;2023-11-19T03:39:19;18.40;;;3.27;;
67997;SDS011;54773;53.388;-1.504;2023-11-19T03:42:03;14.75;;;3.05;;
67997;SDS011;54773;53.388;-1.504;2023-11-19T03:44:48;17.58;;;2.33;;
67997;SDS011;54773;53.388;-1.504;2023-11-19T03:47:33;19.05;;;3.58;;
67997;SDS011;54773;53.388;-1.504;2023-11-19T03:50:17;20.55;;;3.00;;
67997;SDS011;54773;53.388;-1.504;2023-11-19T03:53:03;17.58;;;2.55;;
67997;SDS011;54773;53.388;-1.504;2023-11-19T03:55:48;15.43;;;3.03;;
67997;SDS011;54773;53.388;-1.504;2023-11-19T03:58:33;13.50;;;2.25;;
67997;SDS011;54773;53.388;-1.504;2023-11-19T04:01:17;18.43;;;2.83;;
67997;SDS011;54773;53.388;-1.504;2023-11-19T04:04:01;19.33;;;2.50;;
67997;SDS011;54773;53.388;-1.504;2023-11-19T04:06:46;16.08;;;2.95;;
67997;SDS011;54773;53.388;-1.504;2023-11-19T04:09:29;16.13;;;3.43;;
67997;SDS011;54773;53.388;-1.504;2023-11-19T04:12:13;15.52;;;2.58;;
67997;SDS011;54773;53.388;-1.504;2023-11-19T04:14:57;19.17;;;2.50;;
67997;SDS011;54773;53.388;-1.504;2023-11-19T04:17:42;12.05;;;2.33;;
67997;SDS011;54773;53.388;-1.504;2023-11-19T04:20:26;12.35;;;3.63;;
67997;SDS011;54773;53.388;-1.504;2023-11-19T04:23:10;20.07;;;2.70;;
67997;SDS011;54773;53.388;-1.504;2023-11-19T04:25:54;13.30;;;2.03;;
67997;SDS011;54773;53.388;-1.504;2023-11-19T04:28:40;18.85;;;3.03;;
67997;SDS011;54773;53.388;-1.504;2023-11-19T04:31:28;14.10;;;2.23;;
67997;SDS011;54773;53.388;-1.504;2023-11-19T04:34:13;16.02;;;2.38;;
67997;SDS011;54773;53.388;-1.504;2023-11-19T04:37:00;10.35;;;2.00;;
67997;SDS011;54773;53.388;-1.504;2023-11-19T04:39:48;15.30;;;2.47;;
67997;SDS011;54773;53.388;-1.504;2023-11-19T04:42:32;15.77;;;3.30;;
67997;SDS011;54773;53.388;-1.504;2023-11-19T04:45:16;13.48;;;2.70;;
67997;SDS011;54773;53.388;-1.504;2023-11-19T04:48:00;16.90;;;2.77;;
67997;SDS011;54773;53.388;-1.504;2023-11-19T04:50:43;13.73;;;2.93;;
67997;SDS011;54773;53.388;-1.504;2023-11-19T04:53:28;15.68;;;2.53;;
67997;SDS011;54773;53.388;-1.504;2023-11-19T04:56:12;21.55;;;4.70;;
67997;SDS011;54773;53.388;-1.504;2023-11-19T04:58:57;15.15;;;2.90;;
67997;SDS011;54773;53.388;-1.504;2023-11-19T05:01:41;15.43;;;3.00;;
67997;SDS011;54773;53.388;-1.504;2023-11-19T05:04:25;15.18;;;3.10;;
67997;SDS011;54773;53.388;-1.504;2023-11-19T05:07:10;16.55;;;2.40;;
67997;SDS011;54773;53.388;-1.504;2023-11-19T05:09:54;13.67;;;2.37;;
67997;SDS011;54773;53.388;-1.504;2023-11-19T05:12:38;10.30;;;2.28;;
67997;SDS011;54773;53.388;-1.504;2023-11-19T05:15:22;8.38;;;1.67;;
67997;SDS011;54773;53.388;-1.504;2023-11-19T05:18:07;6.20;;;1.45;;
67997;SDS011;54773;53.388;-1.504;2023-11-19T05:20:52;12.23;;;1.92;;
67997;SDS011;54773;53.388;-1.504;2023-11-19T05:23:36;9.60;;;1.37;;
67997;SDS011;54773;53.388;-1.504;2023-11-19T05:26:20;9.57;;;2.00;;
67997;SDS011;54773;53.388;-1.504;2023-11-19T05:29:04;8.38;;;1.60;;
67997;SDS011;54773;53.388;-1.504;2023-11-19T05:31:48;9.37;;;1.97;;
67997;SDS011;54773;53.388;-1.504;2023-11-19T05:34:32;11.18;;;1.77;;
67997;SDS011;54773;53.388;-1.504;2023-11-19T05:37:16;13.02;;;2.53;;
67997;SDS011;54773;53.388;-1.504;2023-11-19T05:40:01;16.87;;;2.43;;
67997;SDS011;54773;53.388;-1.504;2023-11-19T05:42:47;11.38;;;1.55;;
67997;SDS011;54773;53.388;-1.504;2023-11-19T05:45:31;11.00;;;2.08;;
67997;SDS011;54773;53.388;-1.504;2023-11-19T05:48:15;10.45;;;2.28;;
67997;SDS011;54773;53.388;-1.504;2023-11-19T05:51:00;12.05;;;2.42;;
67997;SDS011;54773;53.388;-1.504;2023-11-19T05:53:44;14.27;;;2.58;;
67997;SDS011;54773;53.388;-1.504;2023-11-19T05:56:33;17.50;;;2.38;;
67997;SDS011;54773;53.388;-1.504;2023-11-19T05:59:17;14.13;;;2.30;;
67997;SDS011;54773;53.388;-1.504;2023-11-19T06:02:01;14.15;;;2.40;;
67997;SDS011;54773;53.388;-1.504;2023-11-19T06:04:48;11.73;;;1.92;;
67997;SDS011;54773;53.388;-1.504;2023-11-19T06:07:33;14.85;;;1.92;;
67997;SDS011;54773;53.388;-1.504;2023-11-19T06:10:17;13.88;;;2.92;;
67997;SDS011;54773;53.388;-1.504;2023-11-19T06:13:01;18.50;;;3.38;;
67997;SDS011;54773;53.388;-1.504;2023-11-19T06:15:48;14.68;;;3.13;;
67997;SDS011;54773;53.388;-1.504;2023-11-19T06:18:34;15.25;;;2.15;;
67997;SDS011;54773;53.388;-1.504;2023-11-19T06:21:21;10.55;;;2.10;;
67997;SDS011;54773;53.388;-1.504;2023-11-19T06:24:05;14.48;;;2.60;;
67997;SDS011;54773;53.388;-1.504;2023-11-19T06:26:48;9.70;;;2.00;;
67997;SDS011;54773;53.388;-1.504;2023-11-19T06:29:32;12.07;;;2.35;;
67997;SDS011;54773;53.388;-1.504;2023-11-19T06:32:16;9.03;;;1.80;;
67997;SDS011;54773;53.388;-1.504;2023-11-19T06:35:00;15.85;;;2.83;;
67997;SDS011;54773;53.388;-1.504;2023-11-19T06:37:44;13.95;;;1.90;;
67997;SDS011;54773;53.388;-1.504;2023-11-19T06:40:28;12.25;;;2.08;;
67997;SDS011;54773;53.388;-1.504;2023-11-19T06:43:15;15.48;;;2.63;;
67997;SDS011;54773;53.388;-1.504;2023-11-19T06:45:59;12.90;;;2.40;;
67997;SDS011;54773;53.388;-1.504;2023-11-19T06:48:43;12.93;;;2.37;;
67997;SDS011;54773;53.388;-1.504;2023-11-19T06:51:28;14.95;;;2.78;;
67997;SDS011;54773;53.388;-1.504;2023-11-19T06:54:13;10.93;;;1.60;;
67997;SDS011;54773;53.388;-1.504;2023-11-19T06:56:57;7.90;;;2.13;;
67997;SDS011;54773;53.388;-1.504;2023-11-19T06:59:42;11.55;;;2.05;;
67997;SDS011;54773;53.388;-1.504;2023-11-19T07:02:26;11.35;;;2.03;;
67997;SDS011;54773;53.388;-1.504;2023-11-19T07:05:10;12.05;;;2.05;;
67997;SDS011;54773;53.388;-1.504;2023-11-19T07:07:55;15.13;;;2.35;;
67997;SDS011;54773;53.388;-1.504;2023-11-19T07:10:39;14.90;;;2.63;;
67997;SDS011;54773;53.388;-1.504;2023-11-19T07:13:23;16.90;;;2.60;;
67997;SDS011;54773;53.388;-1.504;2023-11-19T07:16:07;10.03;;;1.87;;
67997;SDS011;54773;53.388;-1.504;2023-11-19T07:18:53;13.55;;;1.95;;
67997;SDS011;54773;53.388;-1.504;2023-11-19T07:21:39;13.57;;;2.60;;
67997;SDS011;54773;53.388;-1.504;2023-11-19T07:24:27;9.57;;;2.08;;
67997;SDS011;54773;53.388;-1.504;2023-11-19T07:27:12;12.50;;;2.03;;
67997;SDS011;54773;53.388;-1.504;2023-11-19T07:29:57;13.55;;;2.17;;
67997;SDS011;54773;53.388;-1.504;2023-11-19T07:32:41;15.05;;;2.90;;
67997;SDS011;54773;53.388;-1.504;2023-11-19T07:35:26;10.15;;;2.00;;
67997;SDS011;54773;53.388;-1.504;2023-11-19T07:38:10;14.37;;;2.07;;
67997;SDS011;54773;53.388;-1.504;2023-11-19T07:40:54;13.10;;;1.92;;
67997;SDS011;54773;53.388;-1.504;2023-11-19T07:43:39;10.88;;;2.42;;
67997;SDS011;54773;53.388;-1.504;2023-11-19T07:46:23;13.52;;;2.22;;
67997;SDS011;54773;53.388;-1.504;2023-11-19T07:49:08;12.93;;;2.53;;
67997;SDS011;54773;53.388;-1.504;2023-11-19T07:51:53;13.10;;;2.20;;
67997;SDS011;54773;53.388;-1.504;2023-11-19T07:54:37;11.98;;;2.60;;
67997;SDS011;54773;53.388;-1.504;2023-11-19T07:57:21;14.63;;;3.00;;
67997;SDS011;54773;53.388;-1.504;2023-11-19T08:00:07;18.00;;;2.90;;
67997;SDS011;54773;53.388;-1.504;2023-11-19T08:02:56;9.40;;;2.42;;
67997;SDS011;54773;53.388;-1.504;2023-11-19T08:05:39;9.57;;;2.07;;
67997;SDS011;54773;53.388;-1.504;2023-11-19T08:08:24;12.07;;;1.98;;
67997;SDS011;54773;53.388;-1.504;2023-11-19T08:11:08;9.45;;;1.98;;
67997;SDS011;54773;53.388;-1.504;2023-11-19T08:13:51;9.33;;;1.97;;
67997;SDS011;54773;53.388;-1.504;2023-11-19T08:16:35;11.65;;;1.88;;
67997;SDS011;54773;53.388;-1.504;2023-11-19T08:19:21;14.07;;;2.55;;
67997;SDS011;54773;53.388;-1.504;2023-11-19T08:22:05;10.07;;;1.97;;
67997;SDS011;54773;53.388;-1.504;2023-11-19T08:24:49;10.68;;;2.35;;
67997;SDS011;54773;53.388;-1.504;2023-11-19T08:27:33;11.95;;;2.28;;
67997;SDS011;54773;53.388;-1.504;2023-11-19T08:30:17;10.02;;;1.92;;
67997;SDS011;54773;53.388;-1.504;2023-11-19T08:33:01;9.20;;;1.90;;
67997;SDS011;54773;53.388;-1.504;2023-11-19T08:35:46;10.05;;;1.60;;
67997;SDS011;54773;53.388;-1.504;2023-11-19T08:38:30;10.32;;;2.17;;
67997;SDS011;54773;53.388;-1.504;2023-11-19T08:41:15;14.07;;;1.88;;
67997;SDS011;54773;53.388;-1.504;2023-11-19T08:44:01;12.73;;;1.67;;
67997;SDS011;54773;53.388;-1.504;2023-11-19T08:46:48;9.70;;;1.60;;
67997;SDS011;54773;53.388;-1.504;2023-11-19T08:49:33;9.00;;;1.90;;
67997;SDS011;54773;53.388;-1.504;2023-11-19T08:52:17;11.50;;;1.50;;
67997;SDS011;54773;53.388;-1.504;2023-11-19T08:55:01;9.97;;;1.90;;
67997;SDS011;54773;53.388;-1.504;2023-11-19T08:57:49;7.07;;;1.60;;
67997;SDS011;54773;53.388;-1.504;2023-11-19T09:00:33;12.48;;;2.80;;
67997;SDS011;54773;53.388;-1.504;2023-11-19T09:03:17;11.87;;;3.30;;
67997;SDS011;54773;53.388;-1.504;2023-11-19T09:06:01;10.35;;;1.63;;
67997;SDS011;54773;53.388;-1.504;2023-11-19T09:08:45;11.48;;;1.98;;
67997;SDS011;54773;53.388;-1.504;2023-11-19T09:11:29;11.15;;;2.08;;
67997;SDS011;54773;53.388;-1.504;2023-11-19T09:14:13;12.45;;;2.88;;
67997;SDS011;54773;53.388;-1.504;2023-11-19T09:16:57;12.67;;;1.77;;
67997;SDS011;54773;53.388;-1.504;2023-11-19T09:19:41;9.90;;;2.03;;
67997;SDS011;54773;53.388;-1.504;2023-11-19T09:22:25;13.85;;;2.38;;
67997;SDS011;54773;53.388;-1.504;2023-11-19T09:25:09;12.60;;;2.07;;
67997;SDS011;54773;53.388;-1.504;2023-11-19T09:27:53;12.68;;;2.25;;
67997;SDS011;54773;53.388;-1.504;2023-11-19T09:30:37;11.70;;;2.40;;
67997;SDS011;54773;53.388;-1.504;2023-11-19T09:33:21;11.00;;;1.90;;
67997;SDS011;54773;53.388;-1.504;2023-11-19T09:36:05;9.93;;;1.77;;
67997;SDS011;54773;53.388;-1.504;2023-11-19T09:38:50;12.38;;;1.60;;
67997;SDS011;54773;53.388;-1.504;2023-11-19T09:41:33;12.10;;;1.80;;
67997;SDS011;54773;53.388;-1.504;2023-11-19T09:44:18;8.38;;;1.67;;
67997;SDS011;54773;53.388;-1.504;2023-11-19T09:47:02;7.68;;;1.75;;
67997;SDS011;54773;53.388;-1.504;2023-11-19T09:49:47;10.02;;;2.65;;
67997;SDS011;54773;53.388;-1.504;2023-11-19T09:52:31;14.95;;;1.60;;
67997;SDS011;54773;53.388;-1.504;2023-11-19T09:55:15;8.88;;;1.98;;
67997;SDS011;54773;53.388;-1.504;2023-11-19T09:58:00;9.18;;;1.63;;
67997;SDS011;54773;53.388;-1.504;2023-11-19T10:00:45;7.32;;;1.52;;
67997;SDS011;54773;53.388;-1.504;2023-11-19T10:03:31;9.30;;;2.17;;
67997;SDS011;54773;53.388;-1.504;2023-11-19T10:06:21;6.10;;;1.40;;
67997;SDS011;54773;53.388;-1.504;2023-11-19T10:09:06;8.40;;;1.60;;
67997;SDS011;54773;53.388;-1.504;2023-11-19T10:11:50;8.68;;;1.73;;
67997;SDS011;54773;53.388;-1.504;2023-11-19T10:14:34;9.65;;;1.42;;
67997;SDS011;54773;53.388;-1.504;2023-11-19T10:17:21;5.25;;;1.23;;
67997;SDS011;54773;53.388;-1.504;2023-11-19T10:20:05;8.13;;;1.50;;
67997;SDS011;54773;53.388;-1.504;2023-11-19T10:22:53;8.00;;;1.75;;
67997;SDS011;54773;53.388;-1.504;2023-11-19T10:25:41;6.05;;;1.02;;
67997;SDS011;54773;53.388;-1.504;2023-11-19T10:28:25;6.28;;;1.13;;
67997;SDS011;54773;53.388;-1.504;2023-11-19T10:31:09;2.95;;;0.77;;
67997;SDS011;54773;53.388;-1.504;2023-11-19T10:33:53;9.50;;;1.30;;
67997;SDS011;54773;53.388;-1.504;2023-11-19T10:36:38;7.60;;;1.75;;
67997;SDS011;54773;53.388;-1.504;2023-11-19T10:39:31;6.43;;;1.95;;
67997;SDS011;54773;53.388;-1.504;2023-11-19T10:42:38;5.07;;;1.10;;
67997;SDS011;54773;53.388;-1.504;2023-11-19T10:45:22;5.73;;;1.07;;
67997;SDS011;54773;53.388;-1.504;2023-11-19T10:48:07;6.03;;;1.08;;
67997;SDS011;54773;53.388;-1.504;2023-11-19T10:50:53;5.32;;;1.10;;
67997;SDS011;54773;53.388;-1.504;2023-11-19T10:53:38;6.85;;;1.45;;
67997;SDS011;54773;53.388;-1.504;2023-11-19T10:56:23;3.75;;;0.90;;
67997;SDS011;54773;53.388;-1.504;2023-11-19T10:59:09;4.85;;;0.95;;
67997;SDS011;54773;53.388;-1.504;2023-11-19T11:01:55;3.75;;;0.88;;
67997;SDS011;54773;53.388;-1.504;2023-11-19T11:04:43;7.50;;;1.17;;
67997;SDS011;54773;53.388;-1.504;2023-11-19T11:07:28;3.58;;;1.00;;
67997;SDS011;54773;53.388;-1.504;2023-11-19T11:10:13;3.60;;;1.02;;
67997;SDS011;54773;53.388;-1.504;2023-11-19T11:12:59;5.90;;;0.85;;
67997;SDS011;54773;53.388;-1.504;2023-11-19T11:15:47;4.53;;;1.05;;
67997;SDS011;54773;53.388;-1.504;2023-11-19T11:18:33;3.85;;;0.95;;
67997;SDS011;54773;53.388;-1.504;2023-11-19T11:21:17;5.30;;;1.23;;
67997;SDS011;54773;53.388;-1.504;2023-11-19T11:30:29;5.88;;;1.23;;
67997;SDS011;54773;53.388;-1.504;2023-11-19T11:33:32;6.38;;;1.30;;
67997;SDS011;54773;53.388;-1.504;2023-11-19T11:36:21;5.78;;;1.30;;
67997;SDS011;54773;53.388;-1.504;2023-11-19T11:39:06;3.13;;;0.80;;
